createdAt,value
2022-10-08T00:00:48.553Z,98553.97
2022-10-08T00:03:16.106Z,98557.69
2022-10-08T00:05:42.709Z,98560.00
2022-10-08T00:08:09.820Z,98564.84
2022-10-08T00:10:37.264Z,98565.41
2022-10-08T00:13:04.513Z,98558.84
2022-10-08T00:15:36.376Z,98566.31
2022-10-08T00:18:03.017Z,98569.28
2022-10-08T00:20:29.637Z,98566.72
2022-10-08T00:22:56.257Z,98564.88
2022-10-08T00:25:23.001Z,98569.28
2022-10-08T00:27:50.224Z,98569.13
2022-10-08T00:30:16.777Z,98555.78
2022-10-08T00:32:44.549Z,98562.97
2022-10-08T00:35:11.388Z,98565.44
2022-10-08T00:37:37.892Z,98558.63
2022-10-08T00:40:04.720Z,98568.66
2022-10-08T00:42:31.301Z,98561.44
2022-10-08T00:45:00.033Z,98557.97
2022-10-08T00:47:32.479Z,98563.19
2022-10-08T00:50:08.610Z,98562.06
2022-10-08T00:52:55.904Z,98553.09
2022-10-08T00:55:24.382Z,98556.88
2022-10-08T00:57:52.005Z,98548.53
2022-10-08T01:00:21.636Z,98550.88
2022-10-08T01:02:48.825Z,98553.06
2022-10-08T01:05:19.576Z,98552.00
2022-10-08T01:07:52.126Z,98548.81
2022-10-08T01:10:18.912Z,98543.25
2022-10-08T01:13:13.571Z,98554.28
2022-10-08T01:15:44.679Z,98542.81
2022-10-08T01:18:43.597Z,98542.66
2022-10-08T01:21:14.568Z,98548.66
2022-10-08T01:24:14.656Z,98550.59
2022-10-08T01:27:04.601Z,98543.75
2022-10-08T01:29:40.626Z,98541.53
2022-10-08T01:32:17.403Z,98541.19
2022-10-08T01:34:58.160Z,98545.31
2022-10-08T01:37:31.888Z,98541.03
2022-10-08T01:40:00.932Z,98540.16
2022-10-08T01:42:27.978Z,98532.94
2022-10-08T01:44:58.211Z,98538.69
2022-10-08T01:47:30.915Z,98541.50
2022-10-08T01:50:01.482Z,98538.25
2022-10-08T01:52:34.145Z,98536.19
2022-10-08T01:55:04.528Z,98532.47
2022-10-08T01:57:33.263Z,98529.81
2022-10-08T02:00:09.389Z,98529.47
2022-10-08T02:02:38.951Z,98518.56
2022-10-08T02:05:05.999Z,98521.78
2022-10-08T02:07:37.474Z,98520.16
2022-10-08T02:10:09.474Z,98522.53
2022-10-08T02:12:36.713Z,98526.94
2022-10-08T02:15:04.506Z,98526.34
2022-10-08T02:17:39.259Z,98521.66
2022-10-08T02:20:16.819Z,98521.53
2022-10-08T02:22:54.250Z,98517.38
2022-10-08T02:25:30.455Z,98524.31
2022-10-08T02:28:31.571Z,98515.66
2022-10-08T02:31:07.674Z,98507.38
2022-10-08T02:33:48.185Z,98512.59
2022-10-08T02:36:15.384Z,98517.00
2022-10-08T02:38:44.273Z,98518.06
2022-10-08T02:41:11.508Z,98510.09
2022-10-08T02:43:43.083Z,98514.56
2022-10-08T02:46:15.675Z,98527.13
2022-10-08T02:48:45.634Z,98524.16
2022-10-08T02:51:15.575Z,98520.28
2022-10-08T02:53:42.189Z,98520.88
2022-10-08T02:56:15.271Z,98519.94
2022-10-08T02:58:43.089Z,98525.31
2022-10-08T03:01:19.823Z,98534.50
2022-10-08T03:03:49.166Z,98529.94
2022-10-08T03:06:16.450Z,98526.75
2022-10-08T03:08:45.124Z,98527.56
2022-10-08T03:11:12.617Z,98528.44
2022-10-08T03:13:42.831Z,98532.75
2022-10-08T03:16:12.093Z,98537.31
2022-10-08T03:18:39.294Z,98537.88
2022-10-08T03:21:08.260Z,98542.66
2022-10-08T03:23:37.077Z,98536.59
2022-10-08T03:26:03.603Z,98537.50
2022-10-08T03:28:30.521Z,98533.56
2022-10-08T03:30:57.623Z,98551.06
2022-10-08T03:33:24.373Z,98543.78
2022-10-08T03:35:50.929Z,98543.13
2022-10-08T03:38:17.504Z,98550.34
2022-10-08T03:40:54.644Z,98557.06
2022-10-08T03:43:21.205Z,98553.94
2022-10-08T03:45:54.631Z,98559.94
2022-10-08T03:48:22.100Z,98567.00
2022-10-08T03:50:53.712Z,98569.56
2022-10-08T03:53:20.820Z,98578.38
2022-10-08T03:55:47.625Z,98572.47
2022-10-08T03:58:15.105Z,98577.38
2022-10-08T04:00:42.234Z,98583.81
2022-10-08T04:03:09.153Z,98577.09
2022-10-08T04:05:35.753Z,98590.03
2022-10-08T04:08:02.658Z,98585.34
2022-10-08T04:10:29.253Z,98583.25
2022-10-08T04:12:55.849Z,98583.53
2022-10-08T04:15:22.446Z,98582.22
2022-10-08T04:17:48.963Z,98589.16
2022-10-08T04:20:15.524Z,98596.50
2022-10-08T04:22:42.546Z,98591.47
2022-10-08T04:25:09.103Z,98595.41
2022-10-08T04:27:35.631Z,98594.34
2022-10-08T04:30:02.166Z,98590.19
2022-10-08T04:32:28.726Z,98590.25
2022-10-08T04:34:55.323Z,98589.38
2022-10-08T04:37:22.537Z,98604.50
2022-10-08T04:39:49.117Z,98601.09
2022-10-08T04:42:15.633Z,98599.81
2022-10-08T04:44:42.168Z,98593.56
2022-10-08T04:47:09.119Z,98590.75
2022-10-08T04:49:35.719Z,98600.63
2022-10-08T04:52:02.196Z,98598.38
2022-10-08T04:54:28.747Z,98612.00
2022-10-08T04:56:55.317Z,98607.34
2022-10-08T04:59:21.919Z,98606.78
2022-10-08T05:01:48.521Z,98613.19
2022-10-08T05:04:15.125Z,98618.00
2022-10-08T05:06:41.617Z,98615.13
2022-10-08T05:09:08.961Z,98623.72
2022-10-08T05:11:35.782Z,98626.09
2022-10-08T05:14:02.688Z,98620.78
2022-10-08T05:16:29.514Z,98627.97
2022-10-08T05:18:56.520Z,98628.16
2022-10-08T05:21:25.880Z,98626.56
2022-10-08T05:24:00.846Z,98630.03
2022-10-08T05:26:56.267Z,98623.41
2022-10-08T05:29:16.753Z,98625.69
2022-10-08T05:31:43.308Z,98625.09
2022-10-08T05:34:09.998Z,98634.22
2022-10-08T05:36:36.543Z,98633.19
2022-10-08T05:39:04.692Z,98628.50
2022-10-08T05:41:33.581Z,98639.53
2022-10-08T05:44:02.082Z,98642.94
2022-10-08T05:46:29.949Z,98641.91
2022-10-08T05:49:03.297Z,98640.88
2022-10-08T05:51:30.079Z,98641.03
2022-10-08T05:53:57.879Z,98643.63
2022-10-08T05:56:25.859Z,98652.75
2022-10-08T05:58:53.551Z,98648.06
2022-10-08T06:01:27.939Z,98647.63
2022-10-08T06:03:56.922Z,98648.53
2022-10-08T06:06:24.351Z,98656.31
2022-10-08T06:08:59.873Z,98665.75
2022-10-08T06:11:27.498Z,98661.06
2022-10-08T06:13:57.683Z,98666.19
2022-10-08T06:16:24.816Z,98674.00
2022-10-08T06:18:51.735Z,98676.19
2022-10-08T06:21:23.605Z,98675.03
2022-10-08T06:23:57.795Z,98684.78
2022-10-08T06:26:27.296Z,98686.38
2022-10-08T06:28:55.301Z,98686.41
2022-10-08T06:31:22.122Z,98680.63
2022-10-08T06:33:48.903Z,98679.88
2022-10-08T06:36:26.658Z,98685.06
2022-10-08T06:38:57.953Z,98680.59
2022-10-08T06:41:27.279Z,98694.09
2022-10-08T06:43:54.352Z,98685.47
2022-10-08T06:46:21.116Z,98695.31
2022-10-08T06:48:47.970Z,98702.38
2022-10-08T06:51:16.766Z,98694.13
2022-10-08T06:53:44.084Z,98707.72
2022-10-08T06:56:14.499Z,98711.06
2022-10-08T06:58:42.284Z,98707.16
2022-10-08T07:01:09.984Z,98716.72
2022-10-08T07:03:36.969Z,98717.94
2022-10-08T07:06:08.759Z,98713.94
2022-10-08T07:08:38.471Z,98721.78
2022-10-08T07:11:09.604Z,98725.00
2022-10-08T07:13:37.279Z,98721.03
2022-10-08T07:16:25.042Z,98727.38
2022-10-08T07:18:52.587Z,98734.47
2022-10-08T07:21:19.647Z,98741.50
2022-10-08T07:23:46.233Z,98735.78
2022-10-08T07:26:16.261Z,98745.94
2022-10-08T07:28:44.108Z,98741.66
2022-10-08T07:31:15.530Z,98739.28
2022-10-08T07:33:42.120Z,98748.53
2022-10-08T07:36:09.981Z,98754.56
2022-10-08T07:38:36.454Z,98752.25
2022-10-08T07:41:02.850Z,98758.00
2022-10-08T07:43:29.258Z,98753.91
2022-10-08T07:45:55.753Z,98755.94
2022-10-08T07:48:22.231Z,98753.31
2022-10-08T07:50:48.709Z,98761.84
2022-10-08T07:53:15.129Z,98762.31
2022-10-08T07:55:41.530Z,98760.38
2022-10-08T07:58:08.421Z,98771.50
2022-10-08T08:00:34.870Z,98770.38
2022-10-08T08:03:01.591Z,98767.34
2022-10-08T08:05:27.995Z,98774.28
2022-10-08T08:07:54.425Z,98771.19
2022-10-08T08:10:21.227Z,98766.97
2022-10-08T08:12:48.015Z,98770.66
2022-10-08T08:15:15.211Z,98772.63
2022-10-08T08:17:41.591Z,98778.13
2022-10-08T08:20:08.485Z,98770.56
2022-10-08T08:22:35.595Z,98787.81
2022-10-08T08:25:02.050Z,98783.09
2022-10-08T08:27:28.427Z,98794.44
2022-10-08T08:29:55.301Z,98793.47
2022-10-08T08:32:26.117Z,98795.63
2022-10-08T08:34:54.851Z,98795.31
2022-10-08T08:37:21.314Z,98801.66
2022-10-08T08:39:47.679Z,98797.38
2022-10-08T08:42:33.449Z,98796.06
2022-10-08T08:45:00.813Z,98792.91
2022-10-08T08:47:36.817Z,98797.66
2022-10-08T08:50:03.217Z,98805.38
2022-10-08T08:52:30.181Z,98804.09
2022-10-08T08:54:56.639Z,98809.88
2022-10-08T08:57:31.385Z,98803.03
2022-10-08T09:00:00.124Z,98810.22
2022-10-08T09:02:27.804Z,98810.03
2022-10-08T09:04:55.644Z,98809.97
2022-10-08T09:07:23.207Z,98809.69
2022-10-08T09:09:51.325Z,98807.31
2022-10-08T09:12:20.973Z,98808.84
2022-10-08T09:14:53.608Z,98804.53
2022-10-08T09:17:20.977Z,98815.25
2022-10-08T09:19:47.551Z,98820.50
2022-10-08T09:22:16.995Z,98813.72
2022-10-08T09:24:43.389Z,98809.63
2022-10-08T09:27:19.223Z,98806.84
2022-10-08T09:29:45.950Z,98809.88
2022-10-08T09:32:16.495Z,98815.78
2022-10-08T09:34:43.293Z,98813.63
2022-10-08T09:37:19.132Z,98819.88
2022-10-08T09:40:05.347Z,98823.34
2022-10-08T09:42:31.803Z,98823.81
2022-10-08T09:45:00.591Z,98821.28
2022-10-08T09:47:27.138Z,98830.09
2022-10-08T09:50:06.927Z,98821.28
2022-10-08T09:52:34.090Z,98834.41
2022-10-08T09:55:07.432Z,98831.00
2022-10-08T09:57:43.958Z,98832.19
2022-10-08T10:00:24.771Z,98826.91
2022-10-08T10:02:55.492Z,98835.41
2022-10-08T10:05:25.727Z,98831.00
2022-10-08T10:07:52.226Z,98831.06
2022-10-08T10:10:21.571Z,98828.06
2022-10-08T10:12:49.809Z,98834.06
2022-10-08T10:15:18.520Z,98832.38
2022-10-08T10:17:47.609Z,98830.66
2022-10-08T10:20:20.036Z,98834.69
2022-10-08T10:22:55.877Z,98834.81
2022-10-08T10:25:28.401Z,98828.50
2022-10-08T10:27:56.262Z,98842.03
2022-10-08T10:30:23.422Z,98836.97
2022-10-08T10:32:53.423Z,98840.50
2022-10-08T10:35:27.299Z,98832.25
2022-10-08T10:38:03.746Z,98839.00
2022-10-08T10:40:50.406Z,98831.50
2022-10-08T10:43:37.964Z,98837.69
2022-10-08T10:46:09.033Z,98830.38
2022-10-08T10:48:35.456Z,98821.34
2022-10-08T10:51:04.992Z,98834.56
2022-10-08T10:53:31.392Z,98833.81
2022-10-08T10:56:00.926Z,98833.19
2022-10-08T10:58:40.369Z,98839.16
2022-10-08T11:01:27.476Z,98841.59
2022-10-08T11:03:59.838Z,98844.78
2022-10-08T11:06:45.130Z,98832.94
2022-10-08T11:09:14.587Z,98836.44
2022-10-08T11:11:41.917Z,98837.75
2022-10-08T11:14:28.731Z,98834.69
2022-10-08T11:17:21.315Z,98827.75
2022-10-08T11:20:07.360Z,98838.31
2022-10-08T11:22:46.383Z,98836.31
2022-10-08T11:26:19.119Z,98840.50
2022-10-08T11:28:59.405Z,98831.66
2022-10-08T11:31:42.367Z,98838.81
2022-10-08T11:34:23.844Z,98837.34
2022-10-08T11:37:01.809Z,98842.69
2022-10-08T11:39:35.844Z,98840.81
2022-10-08T11:42:39.201Z,98838.59
2022-10-08T11:45:40.319Z,98831.53
2022-10-08T11:48:25.341Z,98831.72
2022-10-08T11:50:51.907Z,98841.47
2022-10-08T11:53:22.278Z,98840.19
2022-10-08T11:55:58.162Z,98845.88
2022-10-08T11:58:30.441Z,98848.50
2022-10-08T12:01:05.516Z,98846.69
2022-10-08T12:03:35.136Z,98839.09
2022-10-08T12:06:15.264Z,98838.34
2022-10-08T12:08:57.866Z,98834.25
2022-10-08T12:11:44.724Z,98834.56
2022-10-08T12:14:11.266Z,98828.06
2022-10-08T12:16:59.001Z,98821.88
2022-10-08T12:19:34.763Z,98824.78
2022-10-08T12:22:25.096Z,98819.75
2022-10-08T12:24:55.999Z,98826.53
2022-10-08T12:27:31.216Z,98830.13
2022-10-08T12:30:01.897Z,98821.47
2022-10-08T12:32:33.045Z,98817.66
2022-10-08T12:35:00.183Z,98818.72
2022-10-08T12:37:39.731Z,98819.47
2022-10-08T12:40:32.337Z,98829.06
2022-10-08T12:43:16.957Z,98831.75
2022-10-08T12:45:59.108Z,98837.31
2022-10-08T12:48:44.068Z,98835.53
2022-10-08T12:51:38.669Z,98835.34
2022-10-08T12:54:05.327Z,98837.28
2022-10-08T12:56:32.108Z,98833.50
2022-10-08T12:59:01.544Z,98831.84
2022-10-08T13:01:28.612Z,98842.97
2022-10-08T13:04:10.592Z,98852.34
2022-10-08T13:06:37.207Z,98846.16
2022-10-08T13:09:25.243Z,98838.81
2022-10-08T13:11:57.201Z,98838.00
2022-10-08T13:14:30.396Z,98835.41
2022-10-08T13:16:57.455Z,98830.69
2022-10-08T13:19:31.600Z,98831.53
2022-10-08T13:22:01.116Z,98826.84
2022-10-08T13:24:33.343Z,98824.41
2022-10-08T13:26:59.999Z,98828.31
2022-10-08T13:29:28.631Z,98832.16
2022-10-08T13:32:14.911Z,98834.88
2022-10-08T13:34:42.543Z,98830.56
2022-10-08T13:37:21.103Z,98837.66
2022-10-08T13:39:53.525Z,98828.88
2022-10-08T13:42:22.043Z,98832.84
2022-10-08T13:44:48.614Z,98834.75
2022-10-08T13:47:18.073Z,98831.25
2022-10-08T13:49:44.901Z,98839.94
2022-10-08T13:52:16.253Z,98829.91
2022-10-08T13:54:43.807Z,98828.09
2022-10-08T13:57:10.548Z,98832.00
2022-10-08T13:59:37.361Z,98818.66
2022-10-08T14:02:04.803Z,98822.56
2022-10-08T14:04:31.353Z,98823.78
2022-10-08T14:06:58.878Z,98825.44
2022-10-08T14:09:27.641Z,98827.09
2022-10-08T14:11:56.616Z,98835.72
2022-10-08T14:14:24.162Z,98832.53
2022-10-08T14:16:51.576Z,98831.06
2022-10-08T14:19:20.373Z,98828.38
2022-10-08T14:21:48.593Z,98826.72
2022-10-08T14:24:15.157Z,98824.81
2022-10-08T14:26:41.916Z,98830.78
2022-10-08T14:29:08.489Z,98821.03
2022-10-08T14:31:35.070Z,98829.47
2022-10-08T14:34:01.744Z,98835.22
2022-10-08T14:36:40.688Z,98835.03
2022-10-08T14:39:07.742Z,98822.50
2022-10-08T14:41:34.333Z,98821.84
2022-10-08T14:44:00.880Z,98822.22
2022-10-08T14:46:27.475Z,98822.94
2022-10-08T14:48:53.951Z,98823.69
2022-10-08T14:51:20.813Z,98820.97
2022-10-08T14:53:47.421Z,98823.69
2022-10-08T14:56:14.001Z,98825.56
2022-10-08T14:58:40.573Z,98827.47
2022-10-08T15:01:07.135Z,98829.84
2022-10-08T15:03:33.989Z,98828.38
2022-10-08T15:06:00.993Z,98831.69
2022-10-08T15:08:28.223Z,98833.59
2022-10-08T15:10:54.809Z,98845.41
2022-10-08T15:13:21.525Z,98844.63
2022-10-08T15:15:48.560Z,98843.69
2022-10-08T15:18:15.126Z,98839.47
2022-10-08T15:20:41.651Z,98830.66
2022-10-08T15:23:10.251Z,98833.31
2022-10-08T15:25:37.118Z,98831.84
2022-10-08T15:28:04.718Z,98839.34
2022-10-08T15:30:31.910Z,98844.56
2022-10-08T15:33:03.040Z,98842.16
2022-10-08T15:35:34.646Z,98845.63
2022-10-08T15:38:01.252Z,98845.16
2022-10-08T15:40:30.277Z,98853.84
2022-10-08T15:42:56.857Z,98851.09
2022-10-08T15:45:23.371Z,98860.50
2022-10-08T15:47:50.011Z,98859.34
2022-10-08T15:50:16.589Z,98864.94
2022-10-08T15:52:46.311Z,98864.97
2022-10-08T15:55:13.258Z,98861.06
2022-10-08T15:57:39.878Z,98864.53
2022-10-08T16:00:07.009Z,98867.31
2022-10-08T16:02:38.548Z,98869.94
2022-10-08T16:05:05.995Z,98870.59
2022-10-08T16:07:40.046Z,98876.56
2022-10-08T16:10:07.410Z,98873.69
2022-10-08T16:12:33.930Z,98875.59
2022-10-08T16:15:00.802Z,98875.16
2022-10-08T16:17:28.177Z,98883.47
2022-10-08T16:19:54.763Z,98883.22
2022-10-08T16:22:21.323Z,98888.50
2022-10-08T16:24:47.858Z,98887.50
2022-10-08T16:27:14.404Z,98885.88
2022-10-08T16:29:40.928Z,98889.13
2022-10-08T16:32:07.501Z,98895.91
2022-10-08T16:34:35.991Z,98893.38
2022-10-08T16:37:04.817Z,98902.94
2022-10-08T16:39:31.429Z,98899.28
2022-10-08T16:41:58.034Z,98905.78
2022-10-08T16:44:24.607Z,98902.22
2022-10-08T16:46:52.803Z,98909.59
2022-10-08T16:49:26.033Z,98913.13
2022-10-08T16:52:06.832Z,98910.28
2022-10-08T16:54:33.836Z,98920.19
2022-10-08T16:57:00.556Z,98920.63
2022-10-08T16:59:28.774Z,98923.84
2022-10-08T17:01:57.933Z,98925.84
2022-10-08T17:04:26.744Z,98937.16
2022-10-08T17:06:53.520Z,98940.25
2022-10-08T17:09:20.821Z,98941.13
2022-10-08T17:11:48.035Z,98947.13
2022-10-08T17:14:14.692Z,98941.38
2022-10-08T17:16:43.420Z,98945.25
2022-10-08T17:19:10.438Z,98946.72
2022-10-08T17:21:37.103Z,98948.81
2022-10-08T17:24:03.773Z,98951.13
2022-10-08T17:26:31.358Z,98962.69
2022-10-08T17:29:04.051Z,98965.47
2022-10-08T17:31:31.717Z,98965.63
2022-10-08T17:33:59.377Z,98973.28
2022-10-08T17:36:36.645Z,98970.59
2022-10-08T17:39:05.837Z,98976.00
2022-10-08T17:41:34.712Z,98973.53
2022-10-08T17:44:03.331Z,98982.75
2022-10-08T17:46:35.426Z,98979.06
2022-10-08T17:49:02.438Z,98981.75
2022-10-08T17:51:30.100Z,98985.69
2022-10-08T17:54:01.564Z,98991.38
2022-10-08T17:56:28.840Z,98999.97
2022-10-08T17:58:55.825Z,99001.69
2022-10-08T18:01:28.326Z,99005.78
2022-10-08T18:03:59.589Z,99004.91
2022-10-08T18:06:26.770Z,99011.22
2022-10-08T18:08:57.438Z,99012.13
2022-10-08T18:11:24.555Z,99014.50
2022-10-08T18:13:51.208Z,99023.78
2022-10-08T18:16:19.137Z,99016.56
2022-10-08T18:18:46.313Z,99016.78
2022-10-08T18:21:14.686Z,99021.22
2022-10-08T18:23:42.822Z,99021.63
2022-10-08T18:26:34.634Z,99027.22
2022-10-08T18:29:06.627Z,99031.59
2022-10-08T18:31:33.803Z,99029.50
2022-10-08T18:34:03.336Z,99046.28
2022-10-08T18:36:32.249Z,99044.97
2022-10-08T18:39:04.685Z,99042.50
2022-10-08T18:41:38.010Z,99051.44
2022-10-08T18:44:06.039Z,99058.03
2022-10-08T18:46:36.429Z,99054.88
2022-10-08T18:49:03.807Z,99068.63
2022-10-08T18:51:30.744Z,99063.81
2022-10-08T18:53:58.445Z,99058.38
2022-10-08T18:56:30.071Z,99064.38
2022-10-08T18:59:03.677Z,99067.75
2022-10-08T19:01:35.691Z,99072.47
2022-10-08T19:04:04.623Z,99073.19
2022-10-08T19:06:33.679Z,99071.84
2022-10-08T19:09:01.083Z,99076.88
2022-10-08T19:11:33.630Z,99079.97
2022-10-08T19:14:00.820Z,99082.88
2022-10-08T19:16:27.373Z,99080.25
2022-10-08T19:18:57.055Z,99087.25
2022-10-08T19:21:25.259Z,99084.66
2022-10-08T19:23:52.238Z,99086.88
2022-10-08T19:26:18.910Z,99086.19
2022-10-08T19:28:47.906Z,99088.88
2022-10-08T19:31:16.982Z,99090.09
2022-10-08T19:33:50.241Z,99089.75
2022-10-08T19:36:17.807Z,99100.13
2022-10-08T19:38:45.303Z,99098.31
2022-10-08T19:41:12.219Z,99106.06
2022-10-08T19:43:42.037Z,99106.44
2022-10-08T19:46:08.598Z,99103.09
2022-10-08T19:48:35.171Z,99107.91
2022-10-08T19:51:06.073Z,99112.00
2022-10-08T19:53:33.345Z,99119.69
2022-10-08T19:56:02.871Z,99121.59
2022-10-08T19:58:29.407Z,99126.91
2022-10-08T20:01:03.988Z,99124.91
2022-10-08T20:03:30.559Z,99123.25
2022-10-08T20:05:57.090Z,99127.09
2022-10-08T20:08:24.185Z,99135.97
2022-10-08T20:10:50.794Z,99122.97
2022-10-08T20:13:17.455Z,99135.81
2022-10-08T20:15:47.685Z,99136.00
2022-10-08T20:18:18.237Z,99131.91
2022-10-08T20:20:44.788Z,99136.75
2022-10-08T20:23:11.408Z,99133.97
2022-10-08T20:25:38.221Z,99139.72
2022-10-08T20:28:04.918Z,99138.25
2022-10-08T20:30:31.668Z,99144.22
2022-10-08T20:32:58.292Z,99152.78
2022-10-08T20:35:24.845Z,99148.72
2022-10-08T20:37:51.361Z,99143.72
2022-10-08T20:40:17.903Z,99143.13
2022-10-08T20:42:44.409Z,99144.06
2022-10-08T20:45:12.007Z,99148.16
2022-10-08T20:47:38.513Z,99150.03
2022-10-08T20:50:05.487Z,99144.25
2022-10-08T20:52:31.980Z,99145.00
2022-10-08T20:54:58.553Z,99143.53
2022-10-08T20:57:25.088Z,99144.81
2022-10-08T20:59:51.633Z,99146.69
2022-10-08T21:02:19.926Z,99147.59
2022-10-08T21:04:46.554Z,99151.13
2022-10-08T21:07:13.641Z,99150.94
2022-10-08T21:09:40.133Z,99149.97
2022-10-08T21:12:10.691Z,99151.66
2022-10-08T21:14:37.193Z,99153.13
2022-10-08T21:17:03.827Z,99153.16
2022-10-08T21:19:30.431Z,99154.81
2022-10-08T21:21:57.439Z,99150.72
2022-10-08T21:24:27.566Z,99149.75
2022-10-08T21:26:54.094Z,99151.97
2022-10-08T21:29:20.656Z,99155.19
2022-10-08T21:31:47.245Z,99160.56
2022-10-08T21:34:13.886Z,99155.56
2022-10-08T21:36:41.025Z,99164.34
2022-10-08T21:39:13.512Z,99162.94
2022-10-08T21:41:51.783Z,99161.53
2022-10-08T21:44:18.868Z,99166.31
2022-10-08T21:46:45.472Z,99170.41
2022-10-08T21:49:17.436Z,99167.94
2022-10-08T21:51:44.359Z,99172.97
2022-10-08T21:54:11.773Z,99174.69
2022-10-08T21:56:39.707Z,99173.00
2022-10-08T21:59:06.834Z,99168.91
2022-10-08T22:01:37.806Z,99166.13
2022-10-08T22:04:09.375Z,99168.84
2022-10-08T22:06:39.529Z,99175.56
2022-10-08T22:09:09.279Z,99169.91
2022-10-08T22:11:35.869Z,99175.56
2022-10-08T22:14:02.545Z,99167.88
2022-10-08T22:16:29.689Z,99176.16
2022-10-08T22:18:57.097Z,99172.16
2022-10-08T22:21:24.307Z,99170.59
2022-10-08T22:23:51.537Z,99166.94
2022-10-08T22:26:20.748Z,99172.78
2022-10-08T22:28:47.792Z,99164.16
2022-10-08T22:31:16.026Z,99161.03
2022-10-08T22:33:42.830Z,99168.25
2022-10-08T22:36:23.569Z,99167.53
2022-10-08T22:38:49.982Z,99166.63
2022-10-08T22:41:22.175Z,99166.94
2022-10-08T22:43:48.722Z,99170.09
2022-10-08T22:46:20.922Z,99166.25
2022-10-08T22:48:47.769Z,99167.69
2022-10-08T22:51:16.970Z,99166.19
2022-10-08T22:53:44.020Z,99163.66
2022-10-08T22:56:14.216Z,99168.31
2022-10-08T22:58:40.987Z,99161.34
2022-10-08T23:01:11.097Z,99168.41
2022-10-08T23:03:37.963Z,99157.47
2022-10-08T23:06:13.366Z,99155.78
2022-10-08T23:08:40.219Z,99157.09
2022-10-08T23:11:07.055Z,99155.31
2022-10-08T23:13:34.160Z,99157.28
2022-10-08T23:16:05.238Z,99152.81
2022-10-08T23:18:33.907Z,99152.75
2022-10-08T23:21:02.410Z,99151.25
2022-10-08T23:23:29.068Z,99149.38
2022-10-08T23:25:57.814Z,99150.16
2022-10-08T23:28:24.870Z,99142.69
2022-10-08T23:30:51.507Z,99151.88
2022-10-08T23:33:18.185Z,99152.44
2022-10-08T23:35:44.834Z,99155.13
2022-10-08T23:38:11.348Z,99155.53
2022-10-08T23:40:37.959Z,99156.81
2022-10-08T23:43:04.606Z,99146.59
2022-10-08T23:45:31.227Z,99145.50
2022-10-08T23:47:57.837Z,99147.78
2022-10-08T23:50:24.427Z,99145.13
2022-10-08T23:52:51.281Z,99155.41
2022-10-08T23:55:18.081Z,99147.97
2022-10-08T23:57:44.635Z,99141.47
